Justas Slavickas

Recruteur - Zalgiris
22 Févr 2028
Mardi
Processus

Personnalité

Adaptabilité (17) Ambition (14) Controverse (4) Loyauté (16) Pression (13) Professionnalisme (7) Sportivité (2) Tempérament (4)

Profil

Style d'entraînement Démocratique
Diplôme Continental B
Détermination 7
Gestion des joueurs 9
Motivation 8
Discipline 6
Satisfaction professionnelle
100%
Fatigue
0%
Rôle Recruteur
Salaire 53.5K p/s
Contrat 14.03.2028

Performance

Comportement Bon
Efficacité de l'entraînement
35%
Développement des joueurs
20%
Prévention des blessures
45%
Mise en place tactique
50%

Événements récents

Négociation de contrat entamée maintenant
A participé à une réunion de recrutement maintenant
A recommandé une cible de transfert maintenant
Négociation de contrat entamée 7j
Négociation de contrat entamée 7j
Négociation de contrat entamée 7j
Négociation de contrat entamée 7j
Négociation de contrat entamée 7j

Suivi en cours

117
Joueur Club Statut Capacité Confiance Observé Dernière observation Dernier vote
Amadou Sabo Suduva Actif 101 / 97 58% 1 24.01.2028 Approuver
Juan Sebastián Herrera Deportivo La Guaira Actif 129 / 105 40% 1 10.01.2028 -
Lewis Morgan SuperSport United Actif 123 / 133 40% 1 10.01.2028 -
Moutir Chajia Suduva Actif 95 / 102 58% 1 02.01.2028 Approuver
Balázs Tóth Blackburn Rovers Actif 151 / 127 40% 1 17.12.2027 -
George Wickens Lincoln City Refusé 142 / 130 40% 1 17.12.2027 Plus d'infos
Nahuel Galardi Maipú Actif 113 / 122 40% 1 16.12.2027 -
Roberto Ramírez Godoy Cruz Actif 113 / 114 40% 1 16.12.2027 -
Vadim Uljanov Akhmat Grozny Actif 114 / 110 40% 1 13.12.2027 Plus d'infos
Killian Cahill Leyton Orient Actif 104 / 112 40% 1 13.12.2027 -
Nicolás Sumavil Platense Actif 120 / 121 40% 1 12.12.2027 -
Nicolas Schmid Portsmouth Actif 143 / 125 40% 1 12.12.2027 -
Richard Ludha MFK Skalica Actif 117 / 119 40% 1 11.12.2027 -
Juan Infante Atlético Tucumán Perdu 120 / 124 40% 2 10.12.2027 -
Emmanuel Gómez Riga Alvarado Actif 111 / 125 40% 2 10.12.2027 -
Mateo Mendoza Godoy Cruz Actif 143 / 134 40% 1 10.12.2027 -
Nahuel Suárez La Luz Actif 103 / 121 40% 1 10.12.2027 -
Delvin Alfonzo Deportivo Tachira Actif 123 / 110 40% 1 08.12.2027 -
Mateusz Bogusz Houston Dynamo Actif 133 / 132 40% 1 07.12.2027 -
Luciano Gondou CSKA Moscow Actif 127 / 128 40% 1 07.12.2027 -
Oliver Petersen Dinamo Batumi Actif 126 / 115 40% 1 06.12.2027 -
Yegor Teslenko Rubin Actif 116 / 124 40% 2 04.12.2027 -
Andy Polar Saburtalo Actif 105 / 107 40% 2 03.12.2027 -
Samuel Lucero Defensa y Justicia Actif 119 / 123 40% 1 03.12.2027 -
Hernán de la Fuente Instituto Actif 131 / 122 40% 1 03.12.2027 -
Alexandr Lomovitskiy Torpedo-BelAZ Actif 118 / 104 40% 1 02.12.2027 -
Gabriel Díaz Patronato Actif 118 / 123 40% 1 01.12.2027 -
Maksim Samorodov Akhmat Grozny Actif 123 / 122 40% 3 30.11.2027 -
Matías Tissera Instituto Actif 113 / 118 40% 1 30.11.2027 -
Sebastián Medina Tigre Actif 117 / 114 40% 1 29.11.2027 -
Kevin Méndez Dinamo Tbilisi Actif 107 / 102 40% 1 29.11.2027 -
Antony Alonso Deportivo Riestra Actif 140 / 128 40% 1 27.11.2027 -
Augusto Berrondo Tristán Suárez Actif 109 / 113 40% 1 27.11.2027 -
Arthur Sales Free State Stars Actif 118 / 122 40% 1 26.11.2027 -
Facundo Altamira Godoy Cruz Perdu 136 / 126 40% 2 25.11.2027 -
Brian Mansilla Akhmat Grozny Actif 123 / 117 40% 1 25.11.2027 -
Mohamed Konaté Nizhniy Novgorod Actif 111 / 119 40% 1 24.11.2027 -
Maximiliano Rueda Patronato Actif 97 / 113 40% 1 23.11.2027 -
Evgeniy Malashevich Dinamo Brest Actif 97 / 107 40% 2 22.11.2027 -
Facundo Taborda Racing Actif 105 / 105 40% 2 22.11.2027 -
Cristian Ramirez Llaneros Actif 119 / 121 40% 2 21.11.2027 -
Valentín Serrano Arsenal Actif 118 / 120 40% 2 21.11.2027 -
Ariel Schuartzman Torpedo Kutaisi Actif 105 / 97 40% 2 20.11.2027 -
Zach Hemming Chesterfield Actif 102 / 110 40% 1 20.11.2027 -
David Veliz Güemes Actif 121 / 108 40% 1 20.11.2027 -
Tiago Banega Gimnasia y Tiro Actif 121 / 109 40% 1 19.11.2027 -
Lautaro Villegas Banfield Actif 106 / 106 40% 1 17.11.2027 -
Gianluca Pugliese Güemes Actif 126 / 104 40% 1 16.11.2027 -
Vladislav Yatskevich BATE Actif 103 / 106 40% 1 15.11.2027 -
Gerónimo Tomasetti Temperley Actif 94 / 110 40% 1 12.11.2027 -
Facundo Heredia Patronato Actif 99 / 110 40% 2 11.11.2027 -
Thiago López Almagro Actif 92 / 103 40% 1 11.11.2027 -
Federico Versaci Talleres Actif 115 / 110 40% 1 09.11.2027 -
Diego Gaitán Maipú Actif 108 / 107 40% 2 06.11.2027 -
Iñaki Larthirigoyen San Telmo Actif 122 / 120 40% 1 29.10.2027 -
Lautaro Disanto Defensores Unidos Actif 103 / 114 40% 1 28.10.2027 -
Diogo Guzmán Montevideo City Torque Actif 103 / 126 40% 2 27.10.2027 -
Giorgi Beridze Dinamo Tbilisi Actif 118 / 111 40% 2 27.10.2027 -
Matías Machado Racing Actif 124 / 113 40% 1 25.10.2027 -
Enzo Martínez Almagro Actif 106 / 109 40% 1 24.10.2027 -
Duvan Rangel La Equidad Actif 150 / 141 40% 1 24.10.2027 -
Giorgi Arabidze Torpedo Kutaisi Actif 108 / 111 40% 1 17.10.2027 -
Imran Oulad Omar Dinamo Batumi Actif 113 / 121 40% 1 12.10.2027 -
Santiago Sala Güemes Actif 115 / 107 40% 1 11.10.2027 -
Manuel Duarte Barracas Central Actif 133 / 118 40% 1 09.10.2027 -
Yegor Kortsov Dinamo Brest Actif 113 / 113 40% 1 07.10.2027 -
Ángelo Lucena Carabobo Actif 108 / 106 40% 1 06.10.2027 -
Brian Orosco Godoy Cruz Actif 114 / 116 40% 2 05.10.2027 -
Dāvis Ikaunieks Siauliai Actif 102 / 103 58% 1 09.08.2027 Approuver
Slobodan Tedić Akron Actif 107 / 104 40% 5 28.05.2027 -
Lorenzo Di Stefano Torres Actif 99 / 109 40% 1 27.05.2027 -
Giacomo Zecca Torres Actif 115 / 102 40% 3 26.05.2027 -
Federico Di Francesco Catanzaro Actif 109 / 114 40% 1 26.05.2027 -
Vladimir Khubulov Dinamo Makhachkala Actif 102 / 103 40% 2 24.05.2027 -
Georgy Melkadze Akhmat Grozny Actif 112 / 118 40% 4 23.05.2027 -
Vyacheslav Grulev Nizhniy Novgorod Actif 113 / 115 40% 6 23.05.2027 -
François Kamano Sochi Perdu 117 / 111 40% 2 23.05.2027 -
Amur Kalmykov Spartak Kostroma Actif 101 / 102 40% 4 20.05.2027 -
Alexandr Yushin Torpedo Moscow Actif 111 / 98 40% 4 20.05.2027 -
Hany Mukhtar Spezia Actif 138 / 125 40% 2 20.05.2027 -
Martin Sekulić Ural Actif 111 / 115 40% 6 18.05.2027 -
Camillo Tavernelli Arezzo Actif 125 / 124 40% 1 15.05.2027 -
Chinonso Offor Baltika Actif 103 / 114 40% 3 06.05.2027 -
Evidence Makgopa Orlando Pirates Actif 122 / 119 40% 2 04.05.2027 -
Ruslan Apekov Torpedo Moscow Actif 106 / 105 40% 4 03.05.2027 -
Chinedu Geoffrey Krylya Sovetov Actif 120 / 112 40% 1 03.05.2027 -
Lamine Diakité Djoliba Actif 97 / 97 40% 3 01.05.2027 -
Dmitry Tsypchenko Torpedo Moscow Actif 112 / 102 40% 1 01.05.2027 -
Amar Rahmanović Krylya Sovetov Actif 116 / 109 40% 3 30.04.2027 -
Vladislav Sarveli Nizhniy Novgorod Actif 118 / 108 40% 5 29.04.2027 -
Robert Murić Floriana Actif 107 / 113 40% 2 27.04.2027 -
Nicolás Andereggen Ethnikos Achnas Actif 110 / 121 40% 1 25.04.2027 -
Tenton Yenne Baltika Actif 111 / 116 40% 2 23.04.2027 -
Etiosa Ighodaro Kaizer Chiefs Actif 129 / 99 40% 1 19.04.2027 -
Mikhail Ignatov Sochi Actif 124 / 115 40% 2 17.04.2027 -
Fortune Bassey Djoliba Actif 106 / 113 40% 1 10.04.2027 -
Aaron Drinan Swindon Town Actif 120 / 95 40% 1 10.04.2027 -
Pedro Marques Apollon Actif 104 / 121 40% 1 09.04.2027 -
Gamid Agalarov Dinamo Makhachkala Actif 111 / 107 40% 1 09.04.2027 -
Djibril Coulibaly Real Bamako Actif 106 / 87 40% 1 03.04.2027 -
David Davidyan Rotor Actif 104 / 92 40% 1 30.03.2027 -
Brayan León Mamelodi Sundowns Actif 126 / 121 40% 2 19.03.2027 -
Job Ochieng Real Sociedad Actif 94 / 100 40% 1 15.03.2027 -
Kamran Aliev SKA Khabarovsk Actif 98 / 94 40% 1 24.02.2027 -
David Karaev KAMAZ Actif 90 / 95 40% 1 09.02.2027 -
Kenan Dervišagić Floriana Actif 111 / 101 40% 1 03.02.2027 -
Maxime Sivis Orenburg Actif 121 / 112 40% 2 27.01.2027 -
Robert Mejía Orenburg Actif 111 / 114 40% 1 27.01.2027 -
Vikintas Valskis Utenis Actif 78 / 82 58% 1 11.01.2027 -
Alexandr Ivankov Torpedo Moscow Actif 118 / 102 40% 1 04.01.2027 -
Fedor Černych Kauno Zalgiris Actif 107 / 100 58% 1 03.01.2027 -
Mingiyan Beveev Baltika Actif 103 / 115 40% 1 31.12.2026 -
Nathan Gassama Baltika Perdu 108 / 111 40% 1 08.12.2026 Plus d'infos
Leo Goglichidze Rodina Perdu 114 / 116 40% 1 08.12.2026 -
Léo Cordeiro Ural Perdu 104 / 104 40% 1 18.11.2026 -
Miloš Brnović Arsenal Tula Actif 120 / 108 40% 1 18.11.2026 -
Arvydas Kazlauskas Utenis Actif 81 / 82 58% 1 24.08.2026 -